sensor_id;sensor_type;location;lat;lon;timestamp;pressure;altitude;pressure_sealevel;temperature;humidity
11314;BME280;5712;48.858;9.206;2023-07-31T00:01:06;98185.34;;;15.79;92.10
11314;BME280;5712;48.858;9.206;2023-07-31T00:03:32;98185.34;;;15.79;92.34
11314;BME280;5712;48.858;9.206;2023-07-31T00:06:00;98186.88;;;15.72;93.14
11314;BME280;5712;48.858;9.206;2023-07-31T00:08:29;98181.50;;;15.62;94.30
11314;BME280;5712;48.858;9.206;2023-07-31T00:10:55;98190.50;;;15.61;94.80
11314;BME280;5712;48.858;9.206;2023-07-31T00:13:22;98185.56;;;15.57;95.61
11314;BME280;5712;48.858;9.206;2023-07-31T00:15:48;98182.31;;;15.53;95.35
11314;BME280;5712;48.858;9.206;2023-07-31T00:18:15;98190.47;;;15.52;96.07
11314;BME280;5712;48.858;9.206;2023-07-31T00:20:41;98186.69;;;15.54;96.21
11314;BME280;5712;48.858;9.206;2023-07-31T00:23:09;98190.19;;;15.55;95.58
11314;BME280;5712;48.858;9.206;2023-07-31T00:25:36;98184.16;;;15.53;95.80
11314;BME280;5712;48.858;9.206;2023-07-31T00:28:04;98183.44;;;15.51;95.52
11314;BME280;5712;48.858;9.206;2023-07-31T00:30:31;98183.44;;;15.51;95.66
11314;BME280;5712;48.858;9.206;2023-07-31T00:32:57;98186.13;;;15.51;96.13
11314;BME280;5712;48.858;9.206;2023-07-31T00:35:24;98190.19;;;15.55;95.63
11314;BME280;5712;48.858;9.206;2023-07-31T00:37:50;98185.81;;;15.54;95.52
11314;BME280;5712;48.858;9.206;2023-07-31T00:40:18;98190.00;;;15.47;96.79
11314;BME280;5712;48.858;9.206;2023-07-31T00:42:44;98191.81;;;15.46;97.12
11314;BME280;5712;48.858;9.206;2023-07-31T00:45:11;98200.66;;;15.47;97.52
11314;BME280;5712;48.858;9.206;2023-07-31T00:47:46;98196.44;;;15.44;97.97
11314;BME280;5712;48.858;9.206;2023-07-31T00:50:13;98193.09;;;15.42;98.16
11314;BME280;5712;48.858;9.206;2023-07-31T00:52:40;98197.31;;;15.45;97.24
11314;BME280;5712;48.858;9.206;2023-07-31T00:55:08;98192.81;;;15.45;97.03
11314;BME280;5712;48.858;9.206;2023-07-31T00:57:36;98188.31;;;15.36;97.24
11314;BME280;5712;48.858;9.206;2023-07-31T01:00:05;98178.97;;;15.31;97.78
11314;BME280;5712;48.858;9.206;2023-07-31T01:02:32;98182.91;;;15.27;98.08
11314;BME280;5712;48.858;9.206;2023-07-31T01:04:58;98183.72;;;15.27;97.89
11314;BME280;5712;48.858;9.206;2023-07-31T01:07:33;98186.50;;;15.26;97.90
11314;BME280;5712;48.858;9.206;2023-07-31T01:10:04;98191.25;;;15.22;98.70
11314;BME280;5712;48.858;9.206;2023-07-31T01:12:38;98190.84;;;15.17;99.61
11314;BME280;5712;48.858;9.206;2023-07-31T01:15:05;98184.09;;;15.13;100.00
11314;BME280;5712;48.858;9.206;2023-07-31T01:17:36;98175.25;;;15.13;99.68
11314;BME280;5712;48.858;9.206;2023-07-31T01:20:04;98177.53;;;15.17;98.88
11314;BME280;5712;48.858;9.206;2023-07-31T01:22:45;98178.66;;;15.15;99.04
11314;BME280;5712;48.858;9.206;2023-07-31T01:25:19;98177.47;;;15.08;99.88
11314;BME280;5712;48.858;9.206;2023-07-31T01:27:55;98170.22;;;15.10;100.00
11314;BME280;5712;48.858;9.206;2023-07-31T01:30:28;98167.13;;;15.14;100.00
11314;BME280;5712;48.858;9.206;2023-07-31T01:32:59;98164.34;;;15.16;100.00
11314;BME280;5712;48.858;9.206;2023-07-31T01:35:27;98149.22;;;15.26;99.56
11314;BME280;5712;48.858;9.206;2023-07-31T01:37:54;98143.16;;;15.35;98.74
11314;BME280;5712;48.858;9.206;2023-07-31T01:40:20;98138.41;;;15.38;98.61
11314;BME280;5712;48.858;9.206;2023-07-31T01:42:47;98137.97;;;15.43;98.29
11314;BME280;5712;48.858;9.206;2023-07-31T01:45:15;98139.94;;;15.41;99.82
11314;BME280;5712;48.858;9.206;2023-07-31T01:47:41;98146.69;;;15.45;99.59
11314;BME280;5712;48.858;9.206;2023-07-31T01:50:08;98151.03;;;15.46;98.82
11314;BME280;5712;48.858;9.206;2023-07-31T01:52:35;98148.38;;;15.46;98.95
11314;BME280;5712;48.858;9.206;2023-07-31T01:55:02;98147.41;;;15.47;98.51
11314;BME280;5712;48.858;9.206;2023-07-31T01:57:28;98145.16;;;15.42;98.46
11314;BME280;5712;48.858;9.206;2023-07-31T01:59:55;98141.06;;;15.38;98.63
11314;BME280;5712;48.858;9.206;2023-07-31T02:02:23;98136.38;;;15.31;99.56
11314;BME280;5712;48.858;9.206;2023-07-31T02:04:49;98139.00;;;15.21;100.00
11314;BME280;5712;48.858;9.206;2023-07-31T02:07:16;98140.50;;;15.14;100.00
11314;BME280;5712;48.858;9.206;2023-07-31T02:09:42;98143.00;;;15.06;100.00
11314;BME280;5712;48.858;9.206;2023-07-31T02:12:11;98136.84;;;15.06;100.00
11314;BME280;5712;48.858;9.206;2023-07-31T02:14:39;98135.44;;;15.02;100.00
11314;BME280;5712;48.858;9.206;2023-07-31T02:17:06;98124.50;;;15.05;100.00
11314;BME280;5712;48.858;9.206;2023-07-31T02:19:34;98117.22;;;15.07;100.00
11314;BME280;5712;48.858;9.206;2023-07-31T02:22:00;98119.47;;;15.02;100.00
11314;BME280;5712;48.858;9.206;2023-07-31T02:24:27;98121.41;;;15.00;100.00
11314;BME280;5712;48.858;9.206;2023-07-31T02:26:53;98112.72;;;14.98;100.00
11314;BME280;5712;48.858;9.206;2023-07-31T02:29:20;98124.59;;;14.94;100.00
11314;BME280;5712;48.858;9.206;2023-07-31T02:31:46;98112.97;;;14.95;100.00
11314;BME280;5712;48.858;9.206;2023-07-31T02:34:12;98113.94;;;14.94;100.00
11314;BME280;5712;48.858;9.206;2023-07-31T02:36:40;98113.25;;;14.92;100.00
11314;BME280;5712;48.858;9.206;2023-07-31T02:39:07;98114.94;;;14.93;100.00
11314;BME280;5712;48.858;9.206;2023-07-31T02:41:33;98103.31;;;14.94;100.00
11314;BME280;5712;48.858;9.206;2023-07-31T02:44:00;98105.97;;;14.94;100.00
11314;BME280;5712;48.858;9.206;2023-07-31T02:46:26;98102.06;;;14.98;100.00
11314;BME280;5712;48.858;9.206;2023-07-31T02:48:53;98101.22;;;14.97;100.00
11314;BME280;5712;48.858;9.206;2023-07-31T02:51:19;98094.66;;;15.01;100.00
11314;BME280;5712;48.858;9.206;2023-07-31T02:53:47;98092.56;;;15.05;100.00
11314;BME280;5712;48.858;9.206;2023-07-31T02:56:14;98091.59;;;15.06;100.00
11314;BME280;5712;48.858;9.206;2023-07-31T02:58:41;98089.63;;;15.08;100.00
11314;BME280;5712;48.858;9.206;2023-07-31T03:01:07;98096.38;;;15.12;100.00
11314;BME280;5712;48.858;9.206;2023-07-31T03:03:34;98082.06;;;15.13;100.00
11314;BME280;5712;48.858;9.206;2023-07-31T03:06:00;98081.63;;;15.08;100.00
11314;BME280;5712;48.858;9.206;2023-07-31T03:08:27;98087.25;;;15.05;100.00
11314;BME280;5712;48.858;9.206;2023-07-31T03:10:56;98092.84;;;15.02;100.00
11314;BME280;5712;48.858;9.206;2023-07-31T03:13:23;98087.78;;;14.99;100.00
11314;BME280;5712;48.858;9.206;2023-07-31T03:15:50;98101.94;;;14.99;100.00
11314;BME280;5712;48.858;9.206;2023-07-31T03:18:16;98099.41;;;14.98;100.00
11314;BME280;5712;48.858;9.206;2023-07-31T03:20:43;98098.72;;;14.96;100.00
11314;BME280;5712;48.858;9.206;2023-07-31T03:23:10;98093.78;;;15.01;100.00
11314;BME280;5712;48.858;9.206;2023-07-31T03:25:36;98091.41;;;14.98;100.00
11314;BME280;5712;48.858;9.206;2023-07-31T03:28:04;98092.84;;;15.02;100.00
11314;BME280;5712;48.858;9.206;2023-07-31T03:30:31;98092.03;;;15.11;100.00
11314;BME280;5712;48.858;9.206;2023-07-31T03:32:58;98086.41;;;15.14;100.00
11314;BME280;5712;48.858;9.206;2023-07-31T03:35:24;98088.69;;;15.18;100.00
11314;BME280;5712;48.858;9.206;2023-07-31T03:37:51;98095.25;;;15.14;100.00
11314;BME280;5712;48.858;9.206;2023-07-31T03:40:17;98104.78;;;15.17;100.00
11314;BME280;5712;48.858;9.206;2023-07-31T03:42:44;98090.75;;;15.05;100.00
11314;BME280;5712;48.858;9.206;2023-07-31T03:45:12;98087.94;;;15.07;100.00
11314;BME280;5712;48.858;9.206;2023-07-31T03:47:38;98090.44;;;14.99;100.00
11314;BME280;5712;48.858;9.206;2023-07-31T03:50:06;98096.75;;;14.98;100.00
11314;BME280;5712;48.858;9.206;2023-07-31T03:52:32;98094.66;;;15.01;100.00
11314;BME280;5712;48.858;9.206;2023-07-31T03:54:59;98101.50;;;14.94;100.00
11314;BME280;5712;48.858;9.206;2023-07-31T03:57:25;98102.03;;;14.88;100.00
11314;BME280;5712;48.858;9.206;2023-07-31T03:59:52;98105.09;;;14.84;100.00
11314;BME280;5712;48.858;9.206;2023-07-31T04:02:20;98096.38;;;14.82;100.00
11314;BME280;5712;48.858;9.206;2023-07-31T04:04:46;98091.41;;;14.98;100.00
11314;BME280;5712;48.858;9.206;2023-07-31T04:07:13;98088.06;;;14.96;100.00
11314;BME280;5712;48.858;9.206;2023-07-31T04:09:39;98078.28;;;15.06;99.60
11314;BME280;5712;48.858;9.206;2023-07-31T04:12:06;98083.75;;;15.14;99.30
11314;BME280;5712;48.858;9.206;2023-07-31T04:14:33;98078.19;;;15.17;98.79
11314;BME280;5712;48.858;9.206;2023-07-31T04:16:59;98081.28;;;15.22;99.67
11314;BME280;5712;48.858;9.206;2023-07-31T04:19:27;98081.44;;;15.30;99.28
11314;BME280;5712;48.858;9.206;2023-07-31T04:21:54;98077.56;;;15.34;98.50
11314;BME280;5712;48.858;9.206;2023-07-31T04:24:20;98079.50;;;15.41;98.09
11314;BME280;5712;48.858;9.206;2023-07-31T04:26:49;98072.81;;;15.47;95.61
11314;BME280;5712;48.858;9.206;2023-07-31T04:29:16;98074.81;;;15.54;95.00
11314;BME280;5712;48.858;9.206;2023-07-31T04:31:42;98071.59;;;15.60;94.67
11314;BME280;5712;48.858;9.206;2023-07-31T04:34:09;98066.66;;;15.65;94.63
11314;BME280;5712;48.858;9.206;2023-07-31T04:36:37;98064.72;;;15.77;94.45
11314;BME280;5712;48.858;9.206;2023-07-31T04:39:04;98060.50;;;15.84;93.37
11314;BME280;5712;48.858;9.206;2023-07-31T04:41:30;98057.56;;;15.96;91.93
11314;BME280;5712;48.858;9.206;2023-07-31T04:43:57;98060.81;;;16.00;91.94
11314;BME280;5712;48.858;9.206;2023-07-31T04:46:23;98072.28;;;16.09;91.75
11314;BME280;5712;48.858;9.206;2023-07-31T04:48:50;98064.69;;;16.14;91.37
11314;BME280;5712;48.858;9.206;2023-07-31T04:51:16;98071.44;;;16.18;91.54
11314;BME280;5712;48.858;9.206;2023-07-31T04:53:44;98063.00;;;16.23;91.22
11314;BME280;5712;48.858;9.206;2023-07-31T04:56:10;98054.00;;;16.33;89.62
11314;BME280;5712;48.858;9.206;2023-07-31T04:58:37;98056.53;;;16.44;89.27
11314;BME280;5712;48.858;9.206;2023-07-31T05:01:03;98054.97;;;16.51;87.76
11314;BME280;5712;48.858;9.206;2023-07-31T05:03:30;98053.28;;;16.60;87.35
11314;BME280;5712;48.858;9.206;2023-07-31T05:05:56;98048.47;;;16.63;86.91
11314;BME280;5712;48.858;9.206;2023-07-31T05:08:23;98046.22;;;16.68;86.92
11314;BME280;5712;48.858;9.206;2023-07-31T05:10:51;98046.38;;;16.67;87.18
11314;BME280;5712;48.858;9.206;2023-07-31T05:13:18;98041.56;;;16.70;86.57
11314;BME280;5712;48.858;9.206;2023-07-31T05:15:45;98040.31;;;16.74;86.21
11314;BME280;5712;48.858;9.206;2023-07-31T05:18:11;98037.88;;;16.81;85.15
11314;BME280;5712;48.858;9.206;2023-07-31T05:20:38;98041.41;;;16.81;85.71
11314;BME280;5712;48.858;9.206;2023-07-31T05:23:04;98030.66;;;16.91;84.89
11314;BME280;5712;48.858;9.206;2023-07-31T05:25:31;98036.97;;;16.99;84.64
11314;BME280;5712;48.858;9.206;2023-07-31T05:27:58;98038.13;;;17.14;83.52
11314;BME280;5712;48.858;9.206;2023-07-31T05:30:25;98040.16;;;17.30;82.59
11314;BME280;5712;48.858;9.206;2023-07-31T05:32:52;98033.81;;;17.40;82.30
11314;BME280;5712;48.858;9.206;2023-07-31T05:35:18;98030.53;;;17.64;81.00
11314;BME280;5712;48.858;9.206;2023-07-31T05:37:45;98030.63;;;17.89;80.34
11314;BME280;5712;48.858;9.206;2023-07-31T05:40:11;98026.41;;;18.04;78.95
11314;BME280;5712;48.858;9.206;2023-07-31T05:42:37;98019.97;;;18.32;77.24
11314;BME280;5712;48.858;9.206;2023-07-31T05:45:07;98025.06;;;18.43;76.07
11314;BME280;5712;48.858;9.206;2023-07-31T05:47:33;98007.06;;;18.53;74.59
11314;BME280;5712;48.858;9.206;2023-07-31T05:50:00;98002.28;;;18.65;74.75
11314;BME280;5712;48.858;9.206;2023-07-31T05:52:26;98005.63;;;18.67;74.56
11314;BME280;5712;48.858;9.206;2023-07-31T05:54:54;98017.22;;;18.50;75.60
11314;BME280;5712;48.858;9.206;2023-07-31T05:57:20;98006.25;;;18.35;75.75
11314;BME280;5712;48.858;9.206;2023-07-31T05:59:47;98016.38;;;18.24;76.08
11314;BME280;5712;48.858;9.206;2023-07-31T06:02:15;98015.59;;;18.14;76.15
11314;BME280;5712;48.858;9.206;2023-07-31T06:04:41;98014.78;;;18.13;77.07
11314;BME280;5712;48.858;9.206;2023-07-31T06:07:08;98008.09;;;18.17;76.00
11314;BME280;5712;48.858;9.206;2023-07-31T06:09:34;98015.97;;;18.36;76.48
11314;BME280;5712;48.858;9.206;2023-07-31T06:12:00;98023.97;;;18.54;76.34
11314;BME280;5712;48.858;9.206;2023-07-31T06:14:30;98014.94;;;18.55;76.31
11314;BME280;5712;48.858;9.206;2023-07-31T06:16:56;98023.53;;;18.66;76.46
11314;BME280;5712;48.858;9.206;2023-07-31T06:19:24;98008.91;;;18.86;74.89
11314;BME280;5712;48.858;9.206;2023-07-31T06:21:51;98019.47;;;19.21;73.61
11314;BME280;5712;48.858;9.206;2023-07-31T06:24:17;98004.84;;;19.81;71.83
11314;BME280;5712;48.858;9.206;2023-07-31T06:26:45;97996.50;;;20.32;68.80
11314;BME280;5712;48.858;9.206;2023-07-31T06:29:12;97987.16;;;20.91;66.18
11314;BME280;5712;48.858;9.206;2023-07-31T06:31:38;97981.03;;;21.43;64.81
11314;BME280;5712;48.858;9.206;2023-07-31T06:34:06;97963.31;;;21.79;60.87
11314;BME280;5712;48.858;9.206;2023-07-31T06:36:34;97951.84;;;21.85;58.20
11314;BME280;5712;48.858;9.206;2023-07-31T06:39:01;97947.75;;;21.89;57.81
11314;BME280;5712;48.858;9.206;2023-07-31T06:41:30;97945.25;;;21.88;57.06
11314;BME280;5712;48.858;9.206;2023-07-31T06:43:57;97952.56;;;21.79;56.78
11314;BME280;5712;48.858;9.206;2023-07-31T06:46:23;97943.16;;;21.22;57.09
11314;BME280;5712;48.858;9.206;2023-07-31T06:48:49;97948.63;;;21.06;57.61
11314;BME280;5712;48.858;9.206;2023-07-31T06:51:16;97964.81;;;20.90;58.17
11314;BME280;5712;48.858;9.206;2023-07-31T06:53:44;97976.53;;;21.05;59.46
11314;BME280;5712;48.858;9.206;2023-07-31T06:56:11;97965.44;;;21.00;58.76
11314;BME280;5712;48.858;9.206;2023-07-31T06:58:37;97970.19;;;20.90;58.70
11314;BME280;5712;48.858;9.206;2023-07-31T07:01:04;97985.13;;;20.93;60.54
11314;BME280;5712;48.858;9.206;2023-07-31T07:03:30;97977.81;;;21.17;60.26
11314;BME280;5712;48.858;9.206;2023-07-31T07:05:57;97961.91;;;21.08;58.26
11314;BME280;5712;48.858;9.206;2023-07-31T07:08:24;97963.34;;;21.18;58.30
11314;BME280;5712;48.858;9.206;2023-07-31T07:10:52;97964.00;;;21.20;57.64
11314;BME280;5712;48.858;9.206;2023-07-31T07:13:19;97954.34;;;21.03;57.17
11314;BME280;5712;48.858;9.206;2023-07-31T07:15:48;97957.34;;;21.08;58.66
11314;BME280;5712;48.858;9.206;2023-07-31T07:18:14;97962.72;;;21.08;58.48
11314;BME280;5712;48.858;9.206;2023-07-31T07:20:46;97966.59;;;21.36;58.34
11314;BME280;5712;48.858;9.206;2023-07-31T07:23:12;97957.00;;;21.42;57.72
11314;BME280;5712;48.858;9.206;2023-07-31T07:25:39;97951.63;;;21.64;57.49
11314;BME280;5712;48.858;9.206;2023-07-31T07:28:07;97954.56;;;21.77;57.82
11314;BME280;5712;48.858;9.206;2023-07-31T07:30:33;97949.19;;;21.77;57.63
11314;BME280;5712;48.858;9.206;2023-07-31T07:33:00;97939.53;;;21.68;56.95
11314;BME280;5712;48.858;9.206;2023-07-31T07:35:26;97952.88;;;21.54;57.65
11314;BME280;5712;48.858;9.206;2023-07-31T07:37:53;97951.53;;;21.27;58.31
11314;BME280;5712;48.858;9.206;2023-07-31T07:40:20;97959.28;;;21.22;58.86
11314;BME280;5712;48.858;9.206;2023-07-31T07:42:46;97967.34;;;21.22;59.70
11314;BME280;5712;48.858;9.206;2023-07-31T07:45:14;97955.31;;;21.10;59.30
11314;BME280;5712;48.858;9.206;2023-07-31T07:47:41;97951.47;;;21.05;58.91
11314;BME280;5712;48.858;9.206;2023-07-31T07:50:08;97954.44;;;21.18;59.23
11314;BME280;5712;48.858;9.206;2023-07-31T07:52:35;97967.25;;;21.38;59.79
11314;BME280;5712;48.858;9.206;2023-07-31T07:55:01;97967.16;;;21.54;59.61
11314;BME280;5712;48.858;9.206;2023-07-31T07:57:29;97957.34;;;21.69;58.75
11314;BME280;5712;48.858;9.206;2023-07-31T07:59:55;97940.34;;;21.91;57.41
11314;BME280;5712;48.858;9.206;2023-07-31T08:02:23;97947.63;;;22.05;57.38
11314;BME280;5712;48.858;9.206;2023-07-31T08:04:49;97951.84;;;22.22;57.79
11314;BME280;5712;48.858;9.206;2023-07-31T08:07:16;97922.88;;;22.24;55.65
11314;BME280;5712;48.858;9.206;2023-07-31T08:09:42;97934.28;;;22.12;56.79
11314;BME280;5712;48.858;9.206;2023-07-31T08:12:09;97925.03;;;21.92;56.61
11314;BME280;5712;48.858;9.206;2023-07-31T08:14:35;97926.06;;;21.68;56.67
11314;BME280;5712;48.858;9.206;2023-07-31T08:17:03;97940.69;;;21.66;57.77
11314;BME280;5712;48.858;9.206;2023-07-31T08:19:31;97922.50;;;21.76;56.13
11314;BME280;5712;48.858;9.206;2023-07-31T08:21:57;97922.34;;;21.92;57.09
11314;BME280;5712;48.858;9.206;2023-07-31T08:24:24;97931.84;;;22.02;56.85
11314;BME280;5712;48.858;9.206;2023-07-31T08:26:50;97923.69;;;22.10;56.20
11314;BME280;5712;48.858;9.206;2023-07-31T08:29:17;97910.88;;;22.12;55.20
11314;BME280;5712;48.858;9.206;2023-07-31T08:31:43;97911.81;;;22.19;55.45
11314;BME280;5712;48.858;9.206;2023-07-31T08:34:10;97906.66;;;22.47;55.78
11314;BME280;5712;48.858;9.206;2023-07-31T08:36:38;97893.88;;;22.63;54.49
11314;BME280;5712;48.858;9.206;2023-07-31T08:39:04;97915.09;;;22.87;54.78
11314;BME280;5712;48.858;9.206;2023-07-31T08:41:31;97909.50;;;23.18;54.52
11314;BME280;5712;48.858;9.206;2023-07-31T08:43:58;97891.34;;;23.26;53.62
11314;BME280;5712;48.858;9.206;2023-07-31T08:46:26;97894.50;;;23.30;53.85
11314;BME280;5712;48.858;9.206;2023-07-31T08:48:53;97890.09;;;23.43;53.38
11314;BME280;5712;48.858;9.206;2023-07-31T08:51:21;97882.44;;;23.47;51.98
11314;BME280;5712;48.858;9.206;2023-07-31T08:53:49;97894.94;;;23.54;53.03
11314;BME280;5712;48.858;9.206;2023-07-31T08:56:15;97888.78;;;23.60;51.96
11314;BME280;5712;48.858;9.206;2023-07-31T08:58:43;97894.78;;;23.77;52.60
11314;BME280;5712;48.858;9.206;2023-07-31T09:01:10;97888.03;;;23.87;51.86
11314;BME280;5712;48.858;9.206;2023-07-31T09:03:38;97885.16;;;24.16;51.91
11314;BME280;5712;48.858;9.206;2023-07-31T09:06:06;97862.34;;;24.19;50.43
11314;BME280;5712;48.858;9.206;2023-07-31T09:08:33;97855.31;;;24.24;50.31
11314;BME280;5712;48.858;9.206;2023-07-31T09:11:02;97851.19;;;24.28;49.62
11314;BME280;5712;48.858;9.206;2023-07-31T09:13:31;97868.53;;;24.47;50.56
11314;BME280;5712;48.858;9.206;2023-07-31T09:15:58;97880.81;;;24.49;51.04
11314;BME280;5712;48.858;9.206;2023-07-31T09:18:25;97877.22;;;24.42;50.98
11314;BME280;5712;48.858;9.206;2023-07-31T09:21:02;97864.50;;;23.81;50.61
11314;BME280;5712;48.858;9.206;2023-07-31T09:23:40;97863.34;;;23.90;50.43
11314;BME280;5712;48.858;9.206;2023-07-31T09:26:08;97869.00;;;23.74;51.54
11314;BME280;5712;48.858;9.206;2023-07-31T09:28:35;97863.75;;;23.87;50.50
11314;BME280;5712;48.858;9.206;2023-07-31T09:31:02;97862.31;;;23.70;51.19
11314;BME280;5712;48.858;9.206;2023-07-31T09:33:28;97867.47;;;23.65;51.15
11314;BME280;5712;48.858;9.206;2023-07-31T09:35:58;97860.03;;;23.67;51.21
11314;BME280;5712;48.858;9.206;2023-07-31T09:38:25;97867.78;;;23.56;52.62
11314;BME280;5712;48.858;9.206;2023-07-31T09:40:52;97865.81;;;23.43;51.95
11314;BME280;5712;48.858;9.206;2023-07-31T09:43:21;97867.03;;;23.41;52.26
11314;BME280;5712;48.858;9.206;2023-07-31T09:45:54;97859.75;;;23.41;52.28
11314;BME280;5712;48.858;9.206;2023-07-31T09:48:23;97834.13;;;23.31;52.04
11314;BME280;5712;48.858;9.206;2023-07-31T09:50:52;97843.19;;;23.23;52.97
11314;BME280;5712;48.858;9.206;2023-07-31T09:53:18;97842.94;;;23.18;54.10
11314;BME280;5712;48.858;9.206;2023-07-31T09:55:44;97824.31;;;23.09;52.82
11314;BME280;5712;48.858;9.206;2023-07-31T09:58:12;97838.91;;;23.14;52.76
11314;BME280;5712;48.858;9.206;2023-07-31T10:00:40;97826.22;;;23.29;53.49
11314;BME280;5712;48.858;9.206;2023-07-31T10:03:08;97842.81;;;23.68;53.49
11314;BME280;5712;48.858;9.206;2023-07-31T10:05:39;97843.13;;;24.07;53.46
11314;BME280;5712;48.858;9.206;2023-07-31T10:08:07;97833.69;;;24.24;52.48
11314;BME280;5712;48.858;9.206;2023-07-31T10:10:36;97802.88;;;24.12;50.60
11314;BME280;5712;48.858;9.206;2023-07-31T10:13:04;97798.75;;;24.16;49.64
11314;BME280;5712;48.858;9.206;2023-07-31T10:15:31;97776.66;;;23.79;48.90
11314;BME280;5712;48.858;9.206;2023-07-31T10:18:00;97798.56;;;23.90;50.22
11314;BME280;5712;48.858;9.206;2023-07-31T10:20:28;97791.44;;;23.83;50.31
11314;BME280;5712;48.858;9.206;2023-07-31T10:22:56;97802.94;;;23.70;51.47
11314;BME280;5712;48.858;9.206;2023-07-31T10:25:26;97793.59;;;23.94;50.35
11314;BME280;5712;48.858;9.206;2023-07-31T10:27:53;97793.94;;;24.12;49.99
11314;BME280;5712;48.858;9.206;2023-07-31T10:30:23;97788.81;;;24.23;50.04
11314;BME280;5712;48.858;9.206;2023-07-31T10:32:51;97790.34;;;24.39;50.78
11314;BME280;5712;48.858;9.206;2023-07-31T10:35:20;97790.97;;;24.41;50.85
11314;BME280;5712;48.858;9.206;2023-07-31T10:37:47;97778.06;;;24.36;49.79
11314;BME280;5712;48.858;9.206;2023-07-31T10:40:16;97776.66;;;24.40;49.94
11314;BME280;5712;48.858;9.206;2023-07-31T10:42:46;97777.75;;;24.52;49.72
11314;BME280;5712;48.858;9.206;2023-07-31T10:45:23;97784.81;;;24.53;49.55
11314;BME280;5712;48.858;9.206;2023-07-31T10:47:58;97776.66;;;24.47;48.98
11314;BME280;5712;48.858;9.206;2023-07-31T10:50:26;97777.75;;;24.52;49.85
11314;BME280;5712;48.858;9.206;2023-07-31T10:52:56;97781.38;;;24.72;49.11
11314;BME280;5712;48.858;9.206;2023-07-31T10:55:26;97772.28;;;24.93;48.39
11314;BME280;5712;48.858;9.206;2023-07-31T10:57:53;97765.00;;;24.87;48.17
11314;BME280;5712;48.858;9.206;2023-07-31T11:00:22;97781.25;;;25.00;48.72
11314;BME280;5712;48.858;9.206;2023-07-31T11:02:56;97762.72;;;24.90;48.58
11314;BME280;5712;48.858;9.206;2023-07-31T11:05:41;97753.78;;;24.96;48.08
11314;BME280;5712;48.858;9.206;2023-07-31T11:08:15;97749.66;;;25.13;48.09
11314;BME280;5712;48.858;9.206;2023-07-31T11:10:43;97761.31;;;25.20;48.64
11314;BME280;5712;48.858;9.206;2023-07-31T11:13:10;97753.81;;;25.22;48.27
11314;BME280;5712;48.858;9.206;2023-07-31T11:15:37;97748.25;;;25.24;47.66
11314;BME280;5712;48.858;9.206;2023-07-31T11:18:03;97752.78;;;25.23;47.95
11314;BME280;5712;48.858;9.206;2023-07-31T11:20:32;97737.59;;;25.22;47.59
11314;BME280;5712;48.858;9.206;2023-07-31T11:23:00;97750.91;;;25.17;48.02
11314;BME280;5712;48.858;9.206;2023-07-31T11:25:29;97764.66;;;25.22;48.62
11314;BME280;5712;48.858;9.206;2023-07-31T11:27:56;97744.66;;;25.23;48.21
11314;BME280;5712;48.858;9.206;2023-07-31T11:30:22;97736.34;;;25.12;47.42
11314;BME280;5712;48.858;9.206;2023-07-31T11:32:49;97745.69;;;25.09;48.59
11314;BME280;5712;48.858;9.206;2023-07-31T11:35:16;97749.88;;;25.12;48.71
11314;BME280;5712;48.858;9.206;2023-07-31T11:37:44;97741.72;;;25.05;48.50
11314;BME280;5712;48.858;9.206;2023-07-31T11:40:11;97756.72;;;25.01;49.57
11314;BME280;5712;48.858;9.206;2023-07-31T11:42:38;97754.41;;;24.92;50.21
11314;BME280;5712;48.858;9.206;2023-07-31T11:45:05;97737.97;;;25.06;49.26
11314;BME280;5712;48.858;9.206;2023-07-31T11:47:32;97739.22;;;24.97;48.95
11314;BME280;5712;48.858;9.206;2023-07-31T11:50:00;97732.56;;;24.93;48.98
11314;BME280;5712;48.858;9.206;2023-07-31T11:52:27;97732.56;;;24.93;48.78
11314;BME280;5712;48.858;9.206;2023-07-31T11:54:56;97737.50;;;24.77;49.29
11314;BME280;5712;48.858;9.206;2023-07-31T11:57:24;97712.97;;;24.65;49.34
11314;BME280;5712;48.858;9.206;2023-07-31T11:59:51;97701.31;;;24.58;48.48
11314;BME280;5712;48.858;9.206;2023-07-31T12:02:19;97715.25;;;24.68;49.38
11314;BME280;5712;48.858;9.206;2023-07-31T12:04:46;97705.47;;;24.67;49.35
11314;BME280;5712;48.858;9.206;2023-07-31T12:07:13;97719.41;;;24.71;49.60
11314;BME280;5712;48.858;9.206;2023-07-31T12:09:50;97728.38;;;24.84;50.17
11314;BME280;5712;48.858;9.206;2023-07-31T12:12:20;97703.84;;;24.79;48.79
11314;BME280;5712;48.858;9.206;2023-07-31T12:14:47;97699.28;;;24.86;48.83
11314;BME280;5712;48.858;9.206;2023-07-31T12:17:14;97701.16;;;25.05;49.27
11314;BME280;5712;48.858;9.206;2023-07-31T12:19:41;97713.91;;;25.24;49.54
11314;BME280;5712;48.858;9.206;2023-07-31T12:22:11;97710.38;;;25.24;48.96
11314;BME280;5712;48.858;9.206;2023-07-31T12:24:39;97714.91;;;25.17;49.36
11314;BME280;5712;48.858;9.206;2023-07-31T12:27:09;97699.91;;;25.21;48.71
11314;BME280;5712;48.858;9.206;2023-07-31T12:29:37;97704.31;;;25.15;49.09
11314;BME280;5712;48.858;9.206;2023-07-31T12:32:05;97704.94;;;25.30;49.11
11314;BME280;5712;48.858;9.206;2023-07-31T12:34:44;97699.72;;;25.48;49.52
11314;BME280;5712;48.858;9.206;2023-07-31T12:37:10;97696.38;;;25.72;49.34
11314;BME280;5712;48.858;9.206;2023-07-31T12:39:37;97681.78;;;25.86;48.25
11314;BME280;5712;48.858;9.206;2023-07-31T12:42:04;97683.44;;;25.87;48.60
11314;BME280;5712;48.858;9.206;2023-07-31T12:44:31;97667.19;;;25.87;47.60
11314;BME280;5712;48.858;9.206;2023-07-31T12:46:59;97665.53;;;25.73;47.87
11314;BME280;5712;48.858;9.206;2023-07-31T12:49:25;97669.09;;;25.67;48.94
11314;BME280;5712;48.858;9.206;2023-07-31T12:51:52;97646.63;;;25.67;46.94
11314;BME280;5712;48.858;9.206;2023-07-31T12:54:19;97655.75;;;25.72;48.03
11314;BME280;5712;48.858;9.206;2023-07-31T12:56:45;97671.16;;;25.78;49.06
11314;BME280;5712;48.858;9.206;2023-07-31T12:59:12;97668.84;;;25.88;49.33
11314;BME280;5712;48.858;9.206;2023-07-31T13:01:39;97628.69;;;25.72;47.19
11314;BME280;5712;48.858;9.206;2023-07-31T13:04:07;97651.00;;;25.61;48.23
11314;BME280;5712;48.858;9.206;2023-07-31T13:06:34;97641.47;;;25.52;48.08
11314;BME280;5712;48.858;9.206;2023-07-31T13:09:00;97634.00;;;25.28;47.72
11314;BME280;5712;48.858;9.206;2023-07-31T13:11:27;97612.56;;;25.07;47.06